地図

経路データ

SID SEASON NUMBER BASIN SUBBASIN NAME ISO_TIME NATURE LAT LON WMO_WIND WMO_PRES WMO_AGENCY TRACK_TYPE DIST2LAND LANDFALL IFLAG USA_AGENCY USA_ATCF_ID USA_LAT USA_LON USA_RECORD USA_STATUS USA_WIND USA_PRES USA_SSHS USA_R34_NE USA_R34_SE USA_R34_SW USA_R34_NW USA_R50_NE USA_R50_SE USA_R50_SW USA_R50_NW USA_R64_NE USA_R64_SE USA_R64_SW USA_R64_NW USA_POCI USA_ROCI USA_RMW USA_EYE TOKYO_LAT TOKYO_LON TOKYO_GRADE TOKYO_WIND TOKYO_PRES TOKYO_R50_DIR TOKYO_R50_LONG TOKYO_R50_SHORT TOKYO_R30_DIR TOKYO_R30_LONG TOKYO_R30_SHORT TOKYO_LAND CMA_LAT CMA_LON CMA_CAT CMA_WIND CMA_PRES HKO_LAT HKO_LON HKO_CAT HKO_WIND HKO_PRES NEWDELHI_LAT NEWDELHI_LON NEWDELHI_GRADE NEWDELHI_WIND NEWDELHI_PRES NEWDELHI_CI NEWDELHI_DP NEWDELHI_POCI REUNION_LAT REUNION_LON REUNION_TYPE REUNION_WIND REUNION_PRES REUNION_TNUM REUNION_CI REUNION_RMW REUNION_R34_NE REUNION_R34_SE REUNION_R34_SW REUNION_R34_NW REUNION_R50_NE REUNION_R50_SE REUNION_R50_SW REUNION_R50_NW REUNION_R64_NE REUNION_R64_SE REUNION_R64_SW REUNION_R64_NW BOM_LAT BOM_LON BOM_TYPE BOM_WIND BOM_PRES BOM_TNUM BOM_CI BOM_RMW BOM_R34_NE BOM_R34_SE BOM_R34_SW BOM_R34_NW BOM_R50_NE BOM_R50_SE BOM_R50_SW BOM_R50_NW BOM_R64_NE BOM_R64_SE BOM_R64_SW BOM_R64_NW BOM_ROCI BOM_POCI BOM_EYE BOM_POS_METHOD BOM_PRES_METHOD NADI_LAT NADI_LON NADI_CAT NADI_WIND NADI_PRES WELLINGTON_LAT WELLINGTON_LON WELLINGTON_WIND WELLINGTON_PRES DS824_LAT DS824_LON DS824_STAGE DS824_WIND DS824_PRES TD9636_LAT TD9636_LON TD9636_STAGE TD9636_WIND TD9636_PRES TD9635_LAT TD9635_LON TD9635_WIND TD9635_PRES TD9635_ROCI NEUMANN_LAT NEUMANN_LON NEUMANN_CLASS NEUMANN_WIND NEUMANN_PRES MLC_LAT MLC_LON MLC_CLASS MLC_WIND MLC_PRES USA_GUST BOM_GUST BOM_GUST_PER REUNION_GUST REUNION_GUST_PER USA_SEAHGT USA_SEARAD_NE USA_SEARAD_SE USA_SEARAD_SW USA_SEARAD_NW STORM_SPEED STORM_DIR
1958108S12161 1958 31 SP MM NOT_NAMED 1958-04-17 23:00:00 NR -12.0000 161.000 1000 bom main 160 160 ______O___O___ -1 -12.0000 161.000 1000 -12.0000 161.000 1 7 229
1958108S12161 1958 31 SP MM NOT_NAMED 1958-04-18 00:00:00 TS -12.0782 160.910 main 175 175 O_____P__OP___ jtwc_sh SH311958 -12.1000 160.900 -1 -12.0702 160.921 -12.1000 160.900 TC 30 1000 -12.0535 160.912 1 6 232
1958108S12161 1958 31 SP MM NOT_NAMED 1958-04-18 03:00:00 TS -12.2558 160.662 main 206 206 P_____P__PP___ SH311958 -12.2400 160.653 -1 -12.2808 160.684 -12.3098 160.663 TC -12.2158 160.651 1 6 233
1958108S12161 1958 31 SP MM NOT_NAMED 1958-04-18 06:00:00 TS -12.4393 160.415 main 234 234 O_____P__PP___ jtwc_sh SH311958 -12.4000 160.400 -1 -12.4916 160.448 -12.5198 160.426 TC -12.3855 160.396 1 6 232
1958108S12161 1958 31 SP MM NOT_NAMED 1958-04-18 09:00:00 TS -12.6372 160.169 main 265 265 P_____P__PP___ SH311958 -12.5925 160.143 -1 -12.7027 160.215 -12.7301 160.192 TC -12.5682 160.153 1 6 230
1958108S12161 1958 31 SP MM NOT_NAMED 1958-04-18 11:00:00 TS -12.7752 160.011 main 295 295 P_____P__PO___ SH311958 -12.7307 159.978 -1 -12.8438 160.062 -12.8708 160.038 TC -12.7000 160.000 1 6 228
1958108S12161 1958 31 SP EA NOT_NAMED 1958-04-18 12:00:00 TS -12.8450 159.935 main 301 301 O_____P__PP___ jtwc_sh SH311958 -12.8000 159.900 -1 -12.9144 159.986 -12.9413 159.962 TC -12.7695 159.927 1 6 226
1958108S12161 1958 31 SP EA NOT_NAMED 1958-04-18 15:00:00 TS -13.0510 159.720 main 341 341 P_____P__PP___ SH311958 -12.9925 159.692 -1 -13.1270 159.762 -13.1535 159.736 TC -12.9895 159.717 1 6 224
1958108S12161 1958 31 SP EA NOT_NAMED 1958-04-18 18:00:00 TS -13.2655 159.516 main 372 372 O_____P__PP___ jtwc_sh SH311958 -13.2000 159.500 -1 -13.3407 159.544 -13.3671 159.516 TC -13.2196 159.520 1 6 221
1958108S12161 1958 31 SP EA NOT_NAMED 1958-04-18 21:00:00 TS -13.4977 159.313 main 403 403 P_____P__PP___ SH311958 -13.4500 159.300 -1 -13.5557 159.335 -13.5825 159.304 TC -13.4504 159.328 1 6 220
1958108S12161 1958 31 SP EA NOT_NAMED 1958-04-18 23:00:00 TS -13.6533 159.180 bom main 427 427 P_____O__PO___ SH311958 -13.6197 159.167 -1 -13.7000 159.200 -13.7273 159.167 TC -13.6000 159.200 1 6 220
1958108S12161 1958 31 SP EA NOT_NAMED 1958-04-19 00:00:00 TS -13.7282 159.113 main 434 434 O_____P__OP___ jtwc_sh SH311958 -13.7000 159.100 -1 -13.7724 159.134 -13.8000 159.100 TC -13.6688 159.132 1 6 222
1958108S12161 1958 31 SP EA NOT_NAMED 1958-04-19 03:00:00 TS -13.9388 158.915 main 465 465 P_____P__PP___ SH311958 -13.9075 158.900 -1 -13.9905 158.942 -14.0196 158.905 TC -13.8691 158.928 1 6 223
1958108S12161 1958 31 SP EA NOT_NAMED 1958-04-19 06:00:00 TS -14.1429 158.719 main 496 496 O_____P__PP___ jtwc_sh SH311958 -14.1000 158.700 -1 -14.2090 158.753 -14.2402 158.716 TC -14.0653 158.725 1 6 223
1958108S12161 1958 31 SP EA NOT_NAMED 1958-04-19 09:00:00 TS -14.3501 158.520 main 534 534 P_____P__PP___ SH311958 -14.3000 158.492 -1 -14.4267 158.562 -14.4603 158.526 TC -14.2636 158.528 1 6 223
1958108S12161 1958 31 SP EA NOT_NAMED 1958-04-19 11:00:00 TS -14.4887 158.390 main 547 547 P_____P__PO___ SH311958 -14.4333 158.361 -1 -14.5709 158.431 -14.6060 158.397 TC -14.4000 158.400 1 6 222
1958108S12161 1958 31 SP EA NOT_NAMED 1958-04-19 12:00:00 TS -14.5587 158.328 main 561 561 O_____P__PP___ jtwc_sh SH311958 -14.5000 158.300 -1 -14.6426 158.364 -14.6784 158.331 TC -14.4728 158.347 1 5 219
1958108S12161 1958 31 SP EA NOT_NAMED 1958-04-19 15:00:00 TS -14.7661 158.155 main 586 586 P_____P__PP___ SH311958 -14.6925 158.150 -1 -14.8555 158.155 -14.8929 158.126 TC -14.6972 158.196 1 5 219
1958108S12161 1958 31 SP EA NOT_NAMED 1958-04-19 18:00:00 TS -14.9785 157.975 main 614 614 O_____P__PP___ jtwc_sh SH311958 -14.9000 158.000 -1 -15.0643 157.928 -15.1024 157.906 TC -14.9259 158.040 1 6 220
1958108S12161 1958 31 SP EA NOT_NAMED 1958-04-19 21:00:00 TS -15.2052 157.772 main 642 642 P_____P__PP___ SH311958 -15.1499 157.830 -1 -15.2678 157.680 -15.3053 157.666 TC -15.1528 157.854 1 6 223
1958108S12161 1958 31 SP EA NOT_NAMED 1958-04-19 23:00:00 TS -15.3551 157.613 bom main 670 670 P_____O__PO___ SH311958 -15.3197 157.686 -1 -15.4000 157.500 -15.4361 157.492 TC -15.3000 157.700 1 7 228
1958108S12161 1958 31 SP EA NOT_NAMED 1958-04-20 00:00:00 TS -15.4284 157.520 main 674 674 O_____P__OP___ jtwc_sh SH311958 -15.4000 157.600 -1 -15.4695 157.395 -15.5000 157.400 TC -15.3725 157.606 1 7 236
1958108S12161 1958 31 SP EA NOT_NAMED 1958-04-20 03:00:00 TS -15.6321 157.190 main 708 708 P_____P__PP___ SH311958 -15.6075 157.272 -1 -15.6761 157.059 -15.6837 157.061 TC -15.5857 157.283 1 8 239
1958108S12161 1958 31 SP EA NOT_NAMED 1958-04-20 06:00:00 TS -15.8252 156.822 main 746 746 O_____P__PP___ jtwc_sh SH311958 -15.8000 156.900 -1 -15.8776 156.697 -15.8591 156.693 TC -15.7895 156.922 1 8 241
1958108S12161 1958 31 SP EA NOT_NAMED 1958-04-20 09:00:00 TS -16.0219 156.454 main 780 780 P_____P__PP___ SH311958 -16.0149 156.550 -1 -16.0714 156.320 -16.0273 156.306 TC -15.9808 156.546 1 8 242
1958108S12161 1958 31 SP EA NOT_NAMED 1958-04-20 11:00:00 TS -16.1441 156.208 main 806 806 P_____P__PO___ SH311958 -16.1447 156.317 -1 -16.1950 156.064 -16.1359 156.044 TC -16.1000 156.300 1 8 243
1958108S12161 1958 31 SP EA NOT_NAMED 1958-04-20 12:00:00 TS -16.1989 156.087 main 821 821 O_____P__PP___ jtwc_sh SH311958 -16.2000 156.200 -1 -16.2549 155.935 -16.1892 155.913 TC -16.1505 156.186 1 8 248
1958108S12161 1958 31 SP EA NOT_NAMED 1958-04-20 15:00:00 TS -16.3321 155.721 main 836 815 P_____P__PP___ SH311958 -16.3000 155.842 -1 -16.4257 155.551 -16.3462 155.524 TC -16.2885 155.847 1 7 249
1958108S12161 1958 31 SP EA NOT_NAMED 1958-04-20 18:00:00 TS -16.4608 155.369 main 815 782 O_____P__PP___ jtwc_sh SH311958 -16.4000 155.500 -1 -16.5812 155.177 -16.4994 155.152 TC -16.4233 155.518 1 7 246
1958108S12161 1958 31 SP EA NOT_NAMED 1958-04-20 21:00:00 TS -16.6202 155.043 main 773 758 P_____P__PP___ SH311958 -16.5774 155.192 -1 -16.7190 154.822 -16.6502 154.807 TC -16.5766 155.202 1 7 241
1958108S12161 1958 31 SP EA NOT_NAMED 1958-04-20 23:00:00 TS -16.7390 154.838 1003 bom main 749 734 P_____O__PO___ SH311958 -16.7223 154.997 -1 -16.8000 154.600 1003 -16.7501 154.597 TC -16.7000 155.000 1 7 239
1958108S12161 1958 31 SP EA NOT_NAMED 1958-04-21 00:00:00 TS -16.7999 154.732 main 734 695 O_____P__OP___ jtwc_sh SH311958 -16.8000 154.900 -1 -16.8282 154.483 1003 -16.8000 154.500 TC 25 1003 -16.7713 154.877 1 7 239
1958108S12161 1958 31 SP EA NOT_NAMED 1958-04-21 03:00:00 TS -16.9858 154.410 main 695 671 P_____P__PP___ SH311958 -17.0350 154.585 -1 -16.9156 154.161 1003 -16.9323 154.210 TC 25 1003 -17.0110 154.510 1 7 236
1958108S12161 1958 31 SP EA NOT_NAMED 1958-04-21 05:00:00 TS -17.1288 154.224 1003 bom main 671 665 P_____O__PP___ SH311958 -17.2083 154.389 -1 -17.0000 154.000 1003 -17.0372 154.057 TC 25 1003 -17.1902 154.286 1 7 229
1958108S12161 1958 31 SP EA NOT_NAMED 1958-04-21 06:00:00 TS -17.2087 154.145 main 656 630 O_____P__OP___ jtwc_sh SH311958 -17.3000 154.300 -1 -17.0588 153.938 -17.1000 154.000 TC 25 1003 -17.2848 154.187 1 7 217
1958108S12161 1958 31 SP EA NOT_NAMED 1958-04-21 09:00:00 TS -17.4767 153.952 main 630 609 P_____P__PP___ SH311958 -17.5775 154.033 -1 -17.2916 153.836 -17.3505 153.892 TC -17.5864 153.965 1 6 207
1958108S12161 1958 31 SP EA NOT_NAMED 1958-04-21 11:00:00 TS -17.6836 153.892 main 609 604 P_____P__PO___ SH311958 -17.7859 153.922 -1 -17.4882 153.834 -17.5579 153.884 TC -17.8000 153.900 1 7 189
1958108S12161 1958 31 SP EA NOT_NAMED 1958-04-21 12:00:00 TS -17.7961 153.890 main 604 582 O_____P__PP___ jtwc_sh SH311958 -17.9000 153.900 -1 -17.5973 153.852 -17.6718 153.897 TC -17.9114 153.900 1 8 170
1958108S12161 1958 31 SP EA NOT_NAMED 1958-04-21 15:00:00 TS -18.1742 153.983 main 582 561 P_____P__PP___ SH311958 -18.2999 153.967 -1 -17.9610 153.972 -18.0458 154.001 TC -18.2644 154.008 1 8 159
1958108S12161 1958 31 SP EA NOT_NAMED 1958-04-21 18:00:00 TS -18.5700 154.204 main 559 548 O_____P__PP___ jtwc_sh SH311958 -18.7000 154.200 -1 -18.3677 154.183 -18.4541 154.195 TC -18.6284 154.244 1 9 147
1958108S12161 1958 31 SP EA NOT_NAMED 1958-04-21 21:00:00 TS -18.9414 154.508 main 556 547 P_____P__PP___ SH311958 -19.0226 154.520 -1 -18.8023 154.471 -18.8783 154.465 TC -18.9815 154.563 1 10 140
1958108S12161 1958 31 SP EA NOT_NAMED 1958-04-21 23:00:00 TS -19.1766 154.745 1001 bom main 547 547 P_____O__PO___ SH311958 -19.2110 154.773 -1 -19.1000 154.700 1001 -19.1608 154.682 TC -19.2000 154.800 2 10 136
1958108S12161 1958 31 SP EA NOT_NAMED 1958-04-22 00:00:00 TS -19.2899 154.863 main 556 548 O_____P__OP___ jtwc_sh SH311958 -19.3000 154.900 -1 -19.2529 154.816 1000 -19.3000 154.800 TC 30 1001 -19.2967 154.899 2 9 135
1958108S12161 1958 31 SP EA NOT_NAMED 1958-04-22 03:00:00 TS -19.6225 155.217 main 559 559 P_____P__PP___ SH311958 -19.5573 155.235 -1 -19.7163 155.214 999 -19.7167 155.176 TC 32 999 -19.5647 155.226 2 9 133
1958108S12161 1958 31 SP EA NOT_NAMED 1958-04-22 05:00:00 TS -19.8295 155.474 998 bom main 573 567 P_____O__PP___ SH311958 -19.7192 155.472 -1 -20.0000 155.500 998 4 -19.9795 155.457 TC 34 998 -19.7296 155.468 2 10 130
1958108S12161 1958 31 SP EA NOT_NAMED 1958-04-22 06:00:00 TS -19.9264 155.608 main 576 576 O_____P__OP___ jtwc_sh SH311958 -19.8000 155.600 -1 -20.1226 155.642 -20.1000 155.600 TC 35 998 -19.8094 155.596 2 10 125
1958108S12161 1958 31 SP EA NOT_NAMED 1958-04-22 09:00:00 TS -20.1957 156.031 main 584 579 P_____P__PP___ SH311958 -20.0499 156.020 -1 -20.4304 156.080 -20.4051 156.027 TC -20.0435 156.006 2 10 122
1958108S12161 1958 31 SP EA NOT_NAMED 1958-04-22 11:00:00 TS -20.3581 156.331 main 580 580 P_____P__PO___ SH311958 -20.2166 156.333 -1 -20.5915 156.378 -20.5658 156.309 TC -20.2000 156.300 1 10 119
1958108S12161 1958 31 SP EA NOT_NAMED 1958-04-22 12:00:00 TS -20.4378 156.488 main 591 582 O_____P__PP___ jtwc_sh SH311958 -20.3000 156.500 -1 -20.6606 156.527 -20.6350 156.449 TC -20.2935 156.467 1 10 116
1958108S12161 1958 31 SP EA NOT_NAMED 1958-04-22 15:00:00 TS -20.6654 156.993 main 594 594 P_____P__PP___ SH311958 -20.5577 157.065 -1 -20.8291 156.968 -20.8046 156.866 TC -20.5780 157.002 1 10 115
1958108S12161 1958 31 SP EA NOT_NAMED 1958-04-22 18:00:00 TS -20.8658 157.482 main 612 612 O_____P__PP___ jtwc_sh SH311958 -20.8000 157.600 -1 -20.9521 157.388 -20.9287 157.279 TC -20.8484 157.544 1 9 113
1958108S12161 1958 31 SP EA NOT_NAMED 1958-04-22 21:00:00 TS -21.0393 157.914 main 634 620 P_____P__PP___ SH311958 -21.0223 158.010 -1 -21.0458 157.771 -21.0222 157.690 TC -21.0797 158.033 1 8 114
1958108S12161 1958 31 SP EA NOT_NAMED 1958-04-22 23:00:00 TS -21.1405 158.159 1000 bom main 609 609 P_____O__PO___ SH311958 -21.1473 158.217 -1 -21.1000 158.000 1000 -21.0749 157.963 TC -21.2000 158.300 2 7 114
1958108S12161 1958 31 SP EA NOT_NAMED 1958-04-23 00:00:00 TS -21.1869 158.265 main 601 582 O_____P__OP___ jtwc_sh SH311958 -21.2000 158.300 -1 -21.1264 158.105 -21.1000 158.100 TC 30 1000 -21.2431 158.397 2 5 117
1958108S12161 1958 31 SP EA NOT_NAMED 1958-04-23 03:00:00 TS -21.2982 158.488 main 582 572 P_____P___P___ SH311958 -21.3299 158.480 -1 -21.2043 158.381 TC -21.3288 158.612 2 4 117
1958108S12161 1958 31 SP EA NOT_NAMED 1958-04-23 06:00:00 TS -21.3623 158.638 main 574 554 O_____P___P___ jtwc_sh SH311958 -21.4000 158.600 -1 -21.2807 158.607 TC -21.3686 158.744 2 3 108
1958108S12161 1958 31 SP EA NOT_NAMED 1958-04-23 09:00:00 TS -21.3896 158.782 main 554 543 P_____P___P___ SH311958 -21.4075 158.750 -1 -21.3561 158.790 TC -21.3872 158.837 2 3 100
1958108S12161 1958 31 SP EA NOT_NAMED 1958-04-23 11:00:00 TS -21.4012 158.873 main 543 543 P_____P___O___ SH311958 -21.3995 158.850 -1 -21.4059 158.892 TC -21.4000 158.900 1 3 100
1958108S12161 1958 31 SP EA NOT_NAMED 1958-04-23 12:00:00 TS -21.4113 158.921 main 543 526 O_____P___P___ jtwc_sh SH311958 -21.4000 158.900 -1 -21.4306 158.938 TC -21.4090 158.936 1 3 110
1958108S12161 1958 31 SP EA NOT_NAMED 1958-04-23 15:00:00 TS -21.4623 159.058 main 526 516 P_____P___P___ SH311958 -21.4350 159.050 -1 -21.5045 159.058 TC -21.4474 159.065 1 3 115
1958108S12161 1958 31 SP EA NOT_NAMED 1958-04-23 18:00:00 TS -21.5288 159.191 main 516 509 O_____P___P___ jtwc_sh SH311958 -21.5000 159.200 -1 -21.5780 159.158 -21.4988 159.217 1 3 121
1958108S12161 1958 31 SP EA NOT_NAMED 1958-04-23 21:00:00 NR -21.6048 159.315 main 509 499 ______P___P___ SH311958 -1 -21.6513 159.245 -21.5583 159.385 1 3 122
1958108S12161 1958 31 SP EA NOT_NAMED 1958-04-23 23:00:00 NR -21.6500 159.400 1004 bom main 499 ______O___O___ SH311958 -1 -21.7000 159.300 1004 -21.6000 159.500 1 3 121

デジタル台風データ・検索

IBTrACS Databaseについて

本データベースは、米国NOAAが公開する1842年以降の世界の熱帯低気圧のベストトラックデータアーカイブInternational Best Track Archive for Climate Stewardship (IBTrACS)を、ウェブで閲覧しやすい形式に変換したものです。

最終更新日:2021-11-26